sensor_id;sensor_type;location;lat;lon;timestamp;P1;durP1;ratioP1;P2;durP2;ratioP2
59790;SDS011;47431;51.640;5.554;2023-03-01T00:02:03;16.87;;;9.93;;
59790;SDS011;47431;51.640;5.554;2023-03-01T00:04:29;15.33;;;10.20;;
59790;SDS011;47431;51.640;5.554;2023-03-01T00:06:54;15.83;;;9.07;;
59790;SDS011;47431;51.640;5.554;2023-03-01T00:09:20;15.27;;;10.13;;
59790;SDS011;47431;51.640;5.554;2023-03-01T00:11:45;15.30;;;9.83;;
59790;SDS011;47431;51.640;5.554;2023-03-01T00:14:10;14.40;;;9.77;;
59790;SDS011;47431;51.640;5.554;2023-03-01T00:16:37;17.87;;;9.37;;
59790;SDS011;47431;51.640;5.554;2023-03-01T00:19:04;14.77;;;9.73;;
59790;SDS011;47431;51.640;5.554;2023-03-01T00:21:29;15.40;;;10.20;;
59790;SDS011;47431;51.640;5.554;2023-03-01T00:23:55;20.23;;;10.37;;
59790;SDS011;47431;51.640;5.554;2023-03-01T00:26:21;15.90;;;10.30;;
59790;SDS011;47431;51.640;5.554;2023-03-01T00:28:47;19.47;;;10.27;;
59790;SDS011;47431;51.640;5.554;2023-03-01T00:31:14;16.17;;;9.87;;
59790;SDS011;47431;51.640;5.554;2023-03-01T00:33:40;14.17;;;9.50;;
59790;SDS011;47431;51.640;5.554;2023-03-01T00:36:05;17.93;;;10.43;;
59790;SDS011;47431;51.640;5.554;2023-03-01T00:38:34;15.07;;;9.43;;
59790;SDS011;47431;51.640;5.554;2023-03-01T00:41:05;13.90;;;9.17;;
59790;SDS011;47431;51.640;5.554;2023-03-01T00:43:30;14.27;;;8.77;;
59790;SDS011;47431;51.640;5.554;2023-03-01T00:45:56;14.93;;;8.47;;
59790;SDS011;47431;51.640;5.554;2023-03-01T00:48:25;14.80;;;9.67;;
59790;SDS011;47431;51.640;5.554;2023-03-01T00:50:50;15.53;;;8.77;;
59790;SDS011;47431;51.640;5.554;2023-03-01T00:53:16;15.67;;;10.10;;
59790;SDS011;47431;51.640;5.554;2023-03-01T00:55:41;18.43;;;10.80;;
59790;SDS011;47431;51.640;5.554;2023-03-01T00:58:06;15.13;;;9.13;;
59790;SDS011;47431;51.640;5.554;2023-03-01T01:00:31;19.03;;;9.73;;
59790;SDS011;47431;51.640;5.554;2023-03-01T01:02:57;17.30;;;8.47;;
59790;SDS011;47431;51.640;5.554;2023-03-01T01:05:22;13.17;;;8.53;;
59790;SDS011;47431;51.640;5.554;2023-03-01T01:07:47;16.13;;;10.60;;
59790;SDS011;47431;51.640;5.554;2023-03-01T01:10:13;19.40;;;9.23;;
59790;SDS011;47431;51.640;5.554;2023-03-01T01:12:41;16.67;;;9.23;;
59790;SDS011;47431;51.640;5.554;2023-03-01T01:15:07;19.43;;;10.87;;
59790;SDS011;47431;51.640;5.554;2023-03-01T01:17:32;15.73;;;10.27;;
59790;SDS011;47431;51.640;5.554;2023-03-01T01:19:57;12.97;;;7.80;;
59790;SDS011;47431;51.640;5.554;2023-03-01T01:22:23;15.07;;;8.90;;
59790;SDS011;47431;51.640;5.554;2023-03-01T01:24:48;15.63;;;9.50;;
59790;SDS011;47431;51.640;5.554;2023-03-01T01:27:13;13.90;;;8.37;;
59790;SDS011;47431;51.640;5.554;2023-03-01T01:29:38;12.93;;;9.23;;
59790;SDS011;47431;51.640;5.554;2023-03-01T01:32:04;16.00;;;8.90;;
59790;SDS011;47431;51.640;5.554;2023-03-01T01:34:29;18.10;;;10.17;;
59790;SDS011;47431;51.640;5.554;2023-03-01T01:36:54;15.20;;;9.60;;
59790;SDS011;47431;51.640;5.554;2023-03-01T01:39:22;15.17;;;10.33;;
59790;SDS011;47431;51.640;5.554;2023-03-01T01:41:47;13.63;;;8.37;;
59790;SDS011;47431;51.640;5.554;2023-03-01T01:46:45;15.17;;;9.17;;
59790;SDS011;47431;51.640;5.554;2023-03-01T01:49:17;17.23;;;10.63;;
59790;SDS011;47431;51.640;5.554;2023-03-01T01:51:44;15.15;;;8.60;;
59790;SDS011;47431;51.640;5.554;2023-03-01T01:54:15;13.83;;;8.40;;
59790;SDS011;47431;51.640;5.554;2023-03-01T01:56:43;16.23;;;8.60;;
59790;SDS011;47431;51.640;5.554;2023-03-01T01:59:09;18.70;;;9.17;;
59790;SDS011;47431;51.640;5.554;2023-03-01T02:01:35;16.60;;;9.73;;
59790;SDS011;47431;51.640;5.554;2023-03-01T02:04:00;15.90;;;9.43;;
59790;SDS011;47431;51.640;5.554;2023-03-01T02:06:27;16.50;;;9.47;;
59790;SDS011;47431;51.640;5.554;2023-03-01T02:08:53;15.07;;;8.67;;
59790;SDS011;47431;51.640;5.554;2023-03-01T02:11:20;15.10;;;10.40;;
59790;SDS011;47431;51.640;5.554;2023-03-01T02:13:46;18.20;;;10.23;;
59790;SDS011;47431;51.640;5.554;2023-03-01T02:16:13;15.77;;;9.30;;
59790;SDS011;47431;51.640;5.554;2023-03-01T02:18:40;14.77;;;8.67;;
59790;SDS011;47431;51.640;5.554;2023-03-01T02:23:43;12.57;;;8.50;;
59790;SDS011;47431;51.640;5.554;2023-03-01T02:28:40;14.13;;;9.03;;
59790;SDS011;47431;51.640;5.554;2023-03-01T02:31:07;19.40;;;9.30;;
59790;SDS011;47431;51.640;5.554;2023-03-01T02:33:52;15.40;;;8.83;;
59790;SDS011;47431;51.640;5.554;2023-03-01T02:36:31;15.70;;;9.37;;
59790;SDS011;47431;51.640;5.554;2023-03-01T02:38:59;14.87;;;9.07;;
59790;SDS011;47431;51.640;5.554;2023-03-01T02:41:26;15.70;;;8.83;;
59790;SDS011;47431;51.640;5.554;2023-03-01T02:43:52;13.07;;;9.00;;
59790;SDS011;47431;51.640;5.554;2023-03-01T02:46:19;16.47;;;9.13;;
59790;SDS011;47431;51.640;5.554;2023-03-01T02:48:48;14.23;;;8.00;;
59790;SDS011;47431;51.640;5.554;2023-03-01T02:53:53;12.47;;;9.00;;
59790;SDS011;47431;51.640;5.554;2023-03-01T02:56:21;12.73;;;6.93;;
59790;SDS011;47431;51.640;5.554;2023-03-01T02:58:47;12.00;;;7.30;;
59790;SDS011;47431;51.640;5.554;2023-03-01T03:01:16;13.13;;;8.30;;
59790;SDS011;47431;51.640;5.554;2023-03-01T03:03:42;13.07;;;7.37;;
59790;SDS011;47431;51.640;5.554;2023-03-01T03:06:07;11.30;;;6.47;;
59790;SDS011;47431;51.640;5.554;2023-03-01T03:08:33;14.90;;;8.20;;
59790;SDS011;47431;51.640;5.554;2023-03-01T03:10:59;19.07;;;9.80;;
59790;SDS011;47431;51.640;5.554;2023-03-01T03:13:24;13.17;;;7.87;;
59790;SDS011;47431;51.640;5.554;2023-03-01T03:15:53;11.00;;;7.17;;
59790;SDS011;47431;51.640;5.554;2023-03-01T03:18:18;11.73;;;8.63;;
59790;SDS011;47431;51.640;5.554;2023-03-01T03:20:44;13.07;;;6.73;;
59790;SDS011;47431;51.640;5.554;2023-03-01T03:23:10;13.63;;;8.23;;
59790;SDS011;47431;51.640;5.554;2023-03-01T03:25:35;13.67;;;7.83;;
59790;SDS011;47431;51.640;5.554;2023-03-01T03:28:03;15.60;;;8.13;;
59790;SDS011;47431;51.640;5.554;2023-03-01T03:30:34;11.20;;;6.82;;
59790;SDS011;47431;51.640;5.554;2023-03-01T03:32:59;13.40;;;8.03;;
59790;SDS011;47431;51.640;5.554;2023-03-01T03:37:50;11.87;;;7.50;;
59790;SDS011;47431;51.640;5.554;2023-03-01T03:40:28;16.20;;;7.23;;
59790;SDS011;47431;51.640;5.554;2023-03-01T03:42:54;18.17;;;9.03;;
59790;SDS011;47431;51.640;5.554;2023-03-01T03:45:19;13.03;;;8.07;;
59790;SDS011;47431;51.640;5.554;2023-03-01T03:47:45;14.30;;;6.77;;
59790;SDS011;47431;51.640;5.554;2023-03-01T03:50:11;12.53;;;7.70;;
59790;SDS011;47431;51.640;5.554;2023-03-01T03:52:36;13.60;;;8.03;;
59790;SDS011;47431;51.640;5.554;2023-03-01T03:55:02;17.93;;;8.87;;
59790;SDS011;47431;51.640;5.554;2023-03-01T03:57:27;16.10;;;7.83;;
59790;SDS011;47431;51.640;5.554;2023-03-01T03:59:52;12.47;;;7.37;;
59790;SDS011;47431;51.640;5.554;2023-03-01T04:02:17;18.47;;;7.97;;
59790;SDS011;47431;51.640;5.554;2023-03-01T04:04:47;16.53;;;10.47;;
59790;SDS011;47431;51.640;5.554;2023-03-01T04:07:14;11.67;;;7.27;;
59790;SDS011;47431;51.640;5.554;2023-03-01T04:09:40;15.73;;;8.83;;
59790;SDS011;47431;51.640;5.554;2023-03-01T04:12:07;12.67;;;7.73;;
59790;SDS011;47431;51.640;5.554;2023-03-01T04:14:32;13.53;;;8.47;;
59790;SDS011;47431;51.640;5.554;2023-03-01T04:16:58;13.00;;;8.03;;
59790;SDS011;47431;51.640;5.554;2023-03-01T04:19:23;20.73;;;8.67;;
59790;SDS011;47431;51.640;5.554;2023-03-01T04:21:48;14.73;;;8.97;;
59790;SDS011;47431;51.640;5.554;2023-03-01T04:24:14;14.30;;;8.83;;
59790;SDS011;47431;51.640;5.554;2023-03-01T04:26:39;13.70;;;7.93;;
59790;SDS011;47431;51.640;5.554;2023-03-01T04:29:04;12.67;;;6.83;;
59790;SDS011;47431;51.640;5.554;2023-03-01T04:31:29;16.70;;;8.87;;
59790;SDS011;47431;51.640;5.554;2023-03-01T04:33:55;16.20;;;7.60;;
59790;SDS011;47431;51.640;5.554;2023-03-01T04:36:24;14.83;;;8.40;;
59790;SDS011;47431;51.640;5.554;2023-03-01T04:38:50;12.33;;;7.67;;
59790;SDS011;47431;51.640;5.554;2023-03-01T04:41:16;12.47;;;8.17;;
59790;SDS011;47431;51.640;5.554;2023-03-01T04:43:42;16.63;;;9.37;;
59790;SDS011;47431;51.640;5.554;2023-03-01T04:46:08;13.20;;;8.27;;
59790;SDS011;47431;51.640;5.554;2023-03-01T04:48:37;15.10;;;8.30;;
59790;SDS011;47431;51.640;5.554;2023-03-01T04:51:03;13.37;;;7.50;;
59790;SDS011;47431;51.640;5.554;2023-03-01T04:53:29;15.63;;;8.53;;
59790;SDS011;47431;51.640;5.554;2023-03-01T04:55:55;12.40;;;8.50;;
59790;SDS011;47431;51.640;5.554;2023-03-01T04:58:21;12.60;;;8.37;;
59790;SDS011;47431;51.640;5.554;2023-03-01T05:00:46;13.73;;;8.80;;
59790;SDS011;47431;51.640;5.554;2023-03-01T05:03:11;16.10;;;8.70;;
59790;SDS011;47431;51.640;5.554;2023-03-01T05:05:37;13.87;;;8.07;;
59790;SDS011;47431;51.640;5.554;2023-03-01T05:08:04;14.60;;;8.50;;
59790;SDS011;47431;51.640;5.554;2023-03-01T05:10:30;13.33;;;8.03;;
59790;SDS011;47431;51.640;5.554;2023-03-01T05:12:56;13.60;;;8.03;;
59790;SDS011;47431;51.640;5.554;2023-03-01T05:15:22;14.80;;;9.37;;
59790;SDS011;47431;51.640;5.554;2023-03-01T05:17:50;15.27;;;9.17;;
59790;SDS011;47431;51.640;5.554;2023-03-01T05:20:16;13.17;;;8.47;;
59790;SDS011;47431;51.640;5.554;2023-03-01T05:22:41;13.70;;;9.23;;
59790;SDS011;47431;51.640;5.554;2023-03-01T05:25:06;14.03;;;9.07;;
59790;SDS011;47431;51.640;5.554;2023-03-01T05:27:32;17.77;;;9.17;;
59790;SDS011;47431;51.640;5.554;2023-03-01T05:29:57;16.83;;;9.93;;
59790;SDS011;47431;51.640;5.554;2023-03-01T05:32:23;16.40;;;9.13;;
59790;SDS011;47431;51.640;5.554;2023-03-01T05:34:48;15.83;;;8.73;;
59790;SDS011;47431;51.640;5.554;2023-03-01T05:37:13;15.00;;;9.63;;
59790;SDS011;47431;51.640;5.554;2023-03-01T05:39:39;14.03;;;8.73;;
59790;SDS011;47431;51.640;5.554;2023-03-01T05:42:04;18.43;;;9.40;;
59790;SDS011;47431;51.640;5.554;2023-03-01T05:44:30;15.10;;;8.93;;
59790;SDS011;47431;51.640;5.554;2023-03-01T05:46:55;17.13;;;9.43;;
59790;SDS011;47431;51.640;5.554;2023-03-01T05:49:21;14.67;;;9.17;;
59790;SDS011;47431;51.640;5.554;2023-03-01T05:51:49;13.83;;;9.13;;
59790;SDS011;47431;51.640;5.554;2023-03-01T05:54:15;14.07;;;8.73;;
59790;SDS011;47431;51.640;5.554;2023-03-01T05:56:41;15.00;;;8.43;;
59790;SDS011;47431;51.640;5.554;2023-03-01T05:59:06;18.60;;;9.40;;
59790;SDS011;47431;51.640;5.554;2023-03-01T06:01:32;16.63;;;10.53;;
59790;SDS011;47431;51.640;5.554;2023-03-01T06:03:57;15.20;;;9.37;;
59790;SDS011;47431;51.640;5.554;2023-03-01T06:06:23;18.90;;;11.00;;
59790;SDS011;47431;51.640;5.554;2023-03-01T06:08:48;18.87;;;9.57;;
59790;SDS011;47431;51.640;5.554;2023-03-01T06:11:14;15.70;;;9.07;;
59790;SDS011;47431;51.640;5.554;2023-03-01T06:13:40;18.13;;;9.63;;
59790;SDS011;47431;51.640;5.554;2023-03-01T06:16:06;15.43;;;9.07;;
59790;SDS011;47431;51.640;5.554;2023-03-01T06:18:31;17.67;;;9.10;;
59790;SDS011;47431;51.640;5.554;2023-03-01T06:20:56;18.57;;;8.90;;
59790;SDS011;47431;51.640;5.554;2023-03-01T06:23:22;18.47;;;10.07;;
59790;SDS011;47431;51.640;5.554;2023-03-01T06:25:48;15.30;;;9.20;;
59790;SDS011;47431;51.640;5.554;2023-03-01T06:28:13;16.13;;;9.33;;
59790;SDS011;47431;51.640;5.554;2023-03-01T06:30:38;13.87;;;9.33;;
59790;SDS011;47431;51.640;5.554;2023-03-01T06:33:04;15.47;;;9.67;;
59790;SDS011;47431;51.640;5.554;2023-03-01T06:35:29;15.50;;;8.73;;
59790;SDS011;47431;51.640;5.554;2023-03-01T06:37:55;15.23;;;9.90;;
59790;SDS011;47431;51.640;5.554;2023-03-01T06:40:20;15.10;;;9.57;;
59790;SDS011;47431;51.640;5.554;2023-03-01T06:42:49;13.50;;;8.83;;
59790;SDS011;47431;51.640;5.554;2023-03-01T06:45:15;16.33;;;9.53;;
59790;SDS011;47431;51.640;5.554;2023-03-01T06:47:41;16.23;;;8.63;;
59790;SDS011;47431;51.640;5.554;2023-03-01T06:50:06;13.00;;;8.47;;
59790;SDS011;47431;51.640;5.554;2023-03-01T06:52:32;21.67;;;9.83;;
59790;SDS011;47431;51.640;5.554;2023-03-01T06:54:57;15.17;;;8.93;;
59790;SDS011;47431;51.640;5.554;2023-03-01T06:57:22;16.00;;;10.53;;
59790;SDS011;47431;51.640;5.554;2023-03-01T06:59:48;18.57;;;9.67;;
59790;SDS011;47431;51.640;5.554;2023-03-01T07:02:13;16.50;;;11.27;;
59790;SDS011;47431;51.640;5.554;2023-03-01T07:04:39;16.30;;;10.50;;
59790;SDS011;47431;51.640;5.554;2023-03-01T07:07:05;15.73;;;9.17;;
59790;SDS011;47431;51.640;5.554;2023-03-01T07:09:30;17.00;;;10.57;;
59790;SDS011;47431;51.640;5.554;2023-03-01T07:11:55;31.80;;;12.00;;
59790;SDS011;47431;51.640;5.554;2023-03-01T07:14:21;15.27;;;9.17;;
59790;SDS011;47431;51.640;5.554;2023-03-01T07:16:46;16.47;;;10.90;;
59790;SDS011;47431;51.640;5.554;2023-03-01T07:19:11;19.00;;;10.90;;
59790;SDS011;47431;51.640;5.554;2023-03-01T07:21:37;18.97;;;10.90;;
59790;SDS011;47431;51.640;5.554;2023-03-01T07:24:04;17.77;;;10.17;;
59790;SDS011;47431;51.640;5.554;2023-03-01T07:26:30;17.00;;;10.33;;
59790;SDS011;47431;51.640;5.554;2023-03-01T07:28:55;17.97;;;10.70;;
59790;SDS011;47431;51.640;5.554;2023-03-01T07:31:20;14.97;;;9.13;;
59790;SDS011;47431;51.640;5.554;2023-03-01T07:33:45;16.90;;;10.23;;
59790;SDS011;47431;51.640;5.554;2023-03-01T07:36:10;14.77;;;10.27;;
59790;SDS011;47431;51.640;5.554;2023-03-01T07:38:36;15.10;;;10.50;;
59790;SDS011;47431;51.640;5.554;2023-03-01T07:41:01;18.87;;;11.83;;
59790;SDS011;47431;51.640;5.554;2023-03-01T07:43:27;20.33;;;12.80;;
59790;SDS011;47431;51.640;5.554;2023-03-01T07:45:53;18.63;;;10.97;;
59790;SDS011;47431;51.640;5.554;2023-03-01T07:48:18;17.40;;;10.90;;
59790;SDS011;47431;51.640;5.554;2023-03-01T07:50:43;15.17;;;9.63;;
59790;SDS011;47431;51.640;5.554;2023-03-01T07:53:09;14.93;;;10.80;;
59790;SDS011;47431;51.640;5.554;2023-03-01T07:55:34;15.07;;;9.80;;
59790;SDS011;47431;51.640;5.554;2023-03-01T07:58:00;14.67;;;9.83;;
59790;SDS011;47431;51.640;5.554;2023-03-01T08:00:25;19.37;;;11.47;;
59790;SDS011;47431;51.640;5.554;2023-03-01T08:02:50;22.27;;;12.20;;
59790;SDS011;47431;51.640;5.554;2023-03-01T08:05:15;14.60;;;10.60;;
59790;SDS011;47431;51.640;5.554;2023-03-01T08:07:41;22.87;;;10.40;;
59790;SDS011;47431;51.640;5.554;2023-03-01T08:10:06;17.63;;;10.77;;
59790;SDS011;47431;51.640;5.554;2023-03-01T08:12:31;13.70;;;9.10;;
59790;SDS011;47431;51.640;5.554;2023-03-01T08:14:57;16.97;;;8.27;;
59790;SDS011;47431;51.640;5.554;2023-03-01T08:17:22;17.10;;;9.70;;
59790;SDS011;47431;51.640;5.554;2023-03-01T08:19:47;16.37;;;10.23;;
59790;SDS011;47431;51.640;5.554;2023-03-01T08:22:13;14.80;;;9.50;;
59790;SDS011;47431;51.640;5.554;2023-03-01T08:24:38;15.05;;;9.00;;
59790;SDS011;47431;51.640;5.554;2023-03-01T08:27:03;13.10;;;9.55;;
59790;SDS011;47431;51.640;5.554;2023-03-01T08:29:32;13.43;;;9.13;;
59790;SDS011;47431;51.640;5.554;2023-03-01T08:31:57;14.10;;;8.95;;
59790;SDS011;47431;51.640;5.554;2023-03-01T08:34:22;14.02;;;9.88;;
59790;SDS011;47431;51.640;5.554;2023-03-01T08:36:47;11.80;;;8.82;;
59790;SDS011;47431;51.640;5.554;2023-03-01T08:39:14;13.30;;;9.27;;
59790;SDS011;47431;51.640;5.554;2023-03-01T08:41:40;15.13;;;9.10;;
59790;SDS011;47431;51.640;5.554;2023-03-01T08:44:06;12.68;;;8.80;;
59790;SDS011;47431;51.640;5.554;2023-03-01T08:46:36;13.52;;;9.07;;
59790;SDS011;47431;51.640;5.554;2023-03-01T08:49:05;12.77;;;9.00;;
59790;SDS011;47431;51.640;5.554;2023-03-01T08:51:31;11.82;;;8.77;;
59790;SDS011;47431;51.640;5.554;2023-03-01T08:54:01;12.63;;;9.07;;
59790;SDS011;47431;51.640;5.554;2023-03-01T08:56:26;10.05;;;7.93;;
59790;SDS011;47431;51.640;5.554;2023-03-01T08:58:52;11.07;;;8.40;;
59790;SDS011;47431;51.640;5.554;2023-03-01T09:01:18;11.45;;;8.20;;
59790;SDS011;47431;51.640;5.554;2023-03-01T09:03:43;9.73;;;7.50;;
59790;SDS011;47431;51.640;5.554;2023-03-01T09:06:09;15.88;;;7.68;;
59790;SDS011;47431;51.640;5.554;2023-03-01T09:08:35;10.63;;;7.75;;
59790;SDS011;47431;51.640;5.554;2023-03-01T09:11:01;13.45;;;8.10;;
59790;SDS011;47431;51.640;5.554;2023-03-01T09:13:27;14.23;;;8.23;;
59790;SDS011;47431;51.640;5.554;2023-03-01T09:15:55;12.23;;;8.57;;
59790;SDS011;47431;51.640;5.554;2023-03-01T09:18:21;11.48;;;8.00;;
59790;SDS011;47431;51.640;5.554;2023-03-01T09:20:46;12.98;;;8.43;;
59790;SDS011;47431;51.640;5.554;2023-03-01T09:23:11;13.63;;;8.63;;
59790;SDS011;47431;51.640;5.554;2023-03-01T09:25:36;12.27;;;8.13;;
59790;SDS011;47431;51.640;5.554;2023-03-01T09:28:02;12.95;;;7.80;;
59790;SDS011;47431;51.640;5.554;2023-03-01T09:30:27;16.77;;;6.35;;
59790;SDS011;47431;51.640;5.554;2023-03-01T09:32:52;13.35;;;8.68;;
59790;SDS011;47431;51.640;5.554;2023-03-01T09:35:17;12.48;;;7.70;;
59790;SDS011;47431;51.640;5.554;2023-03-01T09:37:44;14.63;;;7.97;;
59790;SDS011;47431;51.640;5.554;2023-03-01T09:40:12;17.67;;;8.00;;
59790;SDS011;47431;51.640;5.554;2023-03-01T09:42:45;10.00;;;7.38;;
59790;SDS011;47431;51.640;5.554;2023-03-01T09:45:11;10.73;;;7.20;;
59790;SDS011;47431;51.640;5.554;2023-03-01T09:47:39;12.13;;;7.28;;
59790;SDS011;47431;51.640;5.554;2023-03-01T09:50:09;9.93;;;6.07;;
59790;SDS011;47431;51.640;5.554;2023-03-01T09:52:44;9.70;;;6.63;;
59790;SDS011;47431;51.640;5.554;2023-03-01T09:55:12;10.90;;;6.50;;
59790;SDS011;47431;51.640;5.554;2023-03-01T10:02:45;10.50;;;7.10;;
59790;SDS011;47431;51.640;5.554;2023-03-01T10:10:08;9.65;;;7.38;;
59790;SDS011;47431;51.640;5.554;2023-03-01T10:12:40;11.27;;;6.85;;
59790;SDS011;47431;51.640;5.554;2023-03-01T10:22:47;10.23;;;7.07;;
59790;SDS011;47431;51.640;5.554;2023-03-01T10:25:20;10.25;;;7.65;;
59790;SDS011;47431;51.640;5.554;2023-03-01T10:27:52;10.30;;;6.83;;
59790;SDS011;47431;51.640;5.554;2023-03-01T10:32:44;12.93;;;9.13;;
59790;SDS011;47431;51.640;5.554;2023-03-01T10:35:17;17.10;;;8.38;;
59790;SDS011;47431;51.640;5.554;2023-03-01T10:38:02;10.93;;;8.25;;
59790;SDS011;47431;51.640;5.554;2023-03-01T10:40:28;10.43;;;7.13;;
59790;SDS011;47431;51.640;5.554;2023-03-01T10:42:53;10.35;;;8.10;;
59790;SDS011;47431;51.640;5.554;2023-03-01T10:45:33;10.32;;;6.60;;
59790;SDS011;47431;51.640;5.554;2023-03-01T10:50:43;9.68;;;7.22;;
59790;SDS011;47431;51.640;5.554;2023-03-01T10:53:19;12.38;;;7.90;;
59790;SDS011;47431;51.640;5.554;2023-03-01T10:55:45;12.85;;;7.95;;
59790;SDS011;47431;51.640;5.554;2023-03-01T11:00:46;9.13;;;6.68;;
59790;SDS011;47431;51.640;5.554;2023-03-01T11:03:13;11.50;;;6.75;;
59790;SDS011;47431;51.640;5.554;2023-03-01T11:08:56;10.38;;;7.68;;
59790;SDS011;47431;51.640;5.554;2023-03-01T11:11:17;12.15;;;8.70;;
59790;SDS011;47431;51.640;5.554;2023-03-01T11:13:50;10.73;;;8.85;;
59790;SDS011;47431;51.640;5.554;2023-03-01T11:16:17;11.07;;;7.95;;
59790;SDS011;47431;51.640;5.554;2023-03-01T11:18:55;10.73;;;7.87;;
59790;SDS011;47431;51.640;5.554;2023-03-01T11:21:20;11.48;;;7.53;;
59790;SDS011;47431;51.640;5.554;2023-03-01T11:23:46;10.80;;;7.32;;
59790;SDS011;47431;51.640;5.554;2023-03-01T11:26:12;9.35;;;6.90;;
59790;SDS011;47431;51.640;5.554;2023-03-01T11:28:38;10.27;;;7.20;;
59790;SDS011;47431;51.640;5.554;2023-03-01T11:31:06;9.77;;;6.68;;
59790;SDS011;47431;51.640;5.554;2023-03-01T11:36:03;11.80;;;7.32;;
59790;SDS011;47431;51.640;5.554;2023-03-01T11:38:30;13.48;;;7.53;;
59790;SDS011;47431;51.640;5.554;2023-03-01T11:41:00;11.15;;;7.70;;
59790;SDS011;47431;51.640;5.554;2023-03-01T11:43:30;10.68;;;7.20;;
59790;SDS011;47431;51.640;5.554;2023-03-01T11:54:13;11.52;;;7.05;;
59790;SDS011;47431;51.640;5.554;2023-03-01T11:56:43;11.13;;;7.57;;
59790;SDS011;47431;51.640;5.554;2023-03-01T12:06:38;10.00;;;7.78;;
59790;SDS011;47431;51.640;5.554;2023-03-01T12:11:50;12.52;;;7.70;;
59790;SDS011;47431;51.640;5.554;2023-03-01T12:22:35;10.15;;;8.05;;
59790;SDS011;47431;51.640;5.554;2023-03-01T12:38:13;12.98;;;8.63;;
59790;SDS011;47431;51.640;5.554;2023-03-01T12:41:00;9.18;;;6.72;;
59790;SDS011;47431;51.640;5.554;2023-03-01T12:43:29;10.18;;;7.15;;
59790;SDS011;47431;51.640;5.554;2023-03-01T12:50:57;10.85;;;8.23;;
59790;SDS011;47431;51.640;5.554;2023-03-01T12:53:24;12.77;;;8.55;;
59790;SDS011;47431;51.640;5.554;2023-03-01T12:55:53;11.85;;;7.75;;
59790;SDS011;47431;51.640;5.554;2023-03-01T13:11:01;9.82;;;6.90;;
59790;SDS011;47431;51.640;5.554;2023-03-01T13:13:27;12.88;;;7.88;;
59790;SDS011;47431;51.640;5.554;2023-03-01T13:15:53;10.77;;;7.47;;
59790;SDS011;47431;51.640;5.554;2023-03-01T13:20:52;14.93;;;8.13;;
59790;SDS011;47431;51.640;5.554;2023-03-01T13:30:57;11.23;;;7.93;;
59790;SDS011;47431;51.640;5.554;2023-03-01T13:35:48;11.27;;;8.20;;
59790;SDS011;47431;51.640;5.554;2023-03-01T13:40:58;12.90;;;6.65;;
59790;SDS011;47431;51.640;5.554;2023-03-01T13:43:34;11.88;;;7.65;;
59790;SDS011;47431;51.640;5.554;2023-03-01T13:46:00;12.05;;;8.43;;
59790;SDS011;47431;51.640;5.554;2023-03-01T13:48:27;14.00;;;8.23;;
59790;SDS011;47431;51.640;5.554;2023-03-01T13:50:58;12.40;;;7.00;;
59790;SDS011;47431;51.640;5.554;2023-03-01T13:53:26;12.63;;;8.87;;
59790;SDS011;47431;51.640;5.554;2023-03-01T13:55:55;13.00;;;8.18;;
59790;SDS011;47431;51.640;5.554;2023-03-01T14:00:45;14.13;;;9.38;;
59790;SDS011;47431;51.640;5.554;2023-03-01T14:03:12;10.88;;;8.10;;
59790;SDS011;47431;51.640;5.554;2023-03-01T14:05:39;12.82;;;8.25;;
59790;SDS011;47431;51.640;5.554;2023-03-01T14:08:05;14.13;;;8.82;;
59790;SDS011;47431;51.640;5.554;2023-03-01T14:13:48;13.15;;;7.65;;
59790;SDS011;47431;51.640;5.554;2023-03-01T14:18:53;12.60;;;8.43;;
59790;SDS011;47431;51.640;5.554;2023-03-01T14:21:22;11.30;;;7.40;;
59790;SDS011;47431;51.640;5.554;2023-03-01T14:23:47;11.25;;;8.30;;
59790;SDS011;47431;51.640;5.554;2023-03-01T14:26:13;11.65;;;8.48;;
59790;SDS011;47431;51.640;5.554;2023-03-01T14:28:38;11.85;;;7.93;;
59790;SDS011;47431;51.640;5.554;2023-03-01T14:31:29;14.75;;;9.23;;
59790;SDS011;47431;51.640;5.554;2023-03-01T14:33:54;12.20;;;8.00;;
59790;SDS011;47431;51.640;5.554;2023-03-01T14:36:24;10.43;;;7.80;;
59790;SDS011;47431;51.640;5.554;2023-03-01T14:38:50;13.05;;;9.57;;
59790;SDS011;47431;51.640;5.554;2023-03-01T14:41:19;9.65;;;7.43;;
59790;SDS011;47431;51.640;5.554;2023-03-01T14:43:52;12.23;;;8.60;;
59790;SDS011;47431;51.640;5.554;2023-03-01T14:48:50;11.63;;;8.43;;
59790;SDS011;47431;51.640;5.554;2023-03-01T14:51:16;12.10;;;8.80;;
59790;SDS011;47431;51.640;5.554;2023-03-01T14:53:41;16.63;;;9.27;;
59790;SDS011;47431;51.640;5.554;2023-03-01T14:56:12;11.55;;;8.20;;
59790;SDS011;47431;51.640;5.554;2023-03-01T14:58:38;14.18;;;8.70;;
59790;SDS011;47431;51.640;5.554;2023-03-01T15:01:04;13.23;;;7.90;;
59790;SDS011;47431;51.640;5.554;2023-03-01T15:03:33;11.95;;;9.40;;
59790;SDS011;47431;51.640;5.554;2023-03-01T15:06:02;11.93;;;8.43;;
59790;SDS011;47431;51.640;5.554;2023-03-01T15:08:28;12.38;;;8.88;;
59790;SDS011;47431;51.640;5.554;2023-03-01T15:13:28;13.45;;;8.77;;
59790;SDS011;47431;51.640;5.554;2023-03-01T15:16:00;12.43;;;8.45;;
59790;SDS011;47431;51.640;5.554;2023-03-01T15:18:27;16.83;;;9.93;;
59790;SDS011;47431;51.640;5.554;2023-03-01T15:20:53;13.35;;;8.15;;
59790;SDS011;47431;51.640;5.554;2023-03-01T15:23:24;14.38;;;8.88;;
59790;SDS011;47431;51.640;5.554;2023-03-01T15:25:50;14.60;;;9.68;;
59790;SDS011;47431;51.640;5.554;2023-03-01T15:28:21;14.10;;;9.70;;
59790;SDS011;47431;51.640;5.554;2023-03-01T15:30:51;14.30;;;9.27;;
59790;SDS011;47431;51.640;5.554;2023-03-01T15:35:58;14.55;;;9.38;;
59790;SDS011;47431;51.640;5.554;2023-03-01T15:40:52;11.52;;;8.23;;
59790;SDS011;47431;51.640;5.554;2023-03-01T15:43:36;12.88;;;8.75;;
59790;SDS011;47431;51.640;5.554;2023-03-01T15:46:02;15.43;;;9.30;;
59790;SDS011;47431;51.640;5.554;2023-03-01T15:48:27;11.52;;;8.23;;
59790;SDS011;47431;51.640;5.554;2023-03-01T15:50:54;10.90;;;8.27;;
59790;SDS011;47431;51.640;5.554;2023-03-01T15:53:19;11.05;;;9.20;;
59790;SDS011;47431;51.640;5.554;2023-03-01T15:55:44;18.27;;;9.82;;
59790;SDS011;47431;51.640;5.554;2023-03-01T15:58:12;12.70;;;8.75;;
59790;SDS011;47431;51.640;5.554;2023-03-01T16:00:38;14.00;;;9.05;;
59790;SDS011;47431;51.640;5.554;2023-03-01T16:03:04;9.90;;;7.57;;
59790;SDS011;47431;51.640;5.554;2023-03-01T16:05:31;12.95;;;8.02;;
59790;SDS011;47431;51.640;5.554;2023-03-01T16:07:57;18.67;;;8.88;;
59790;SDS011;47431;51.640;5.554;2023-03-01T16:10:22;10.63;;;7.97;;
59790;SDS011;47431;51.640;5.554;2023-03-01T16:12:48;13.25;;;9.25;;
59790;SDS011;47431;51.640;5.554;2023-03-01T16:15:16;13.15;;;8.73;;
59790;SDS011;47431;51.640;5.554;2023-03-01T16:17:42;11.07;;;7.68;;
59790;SDS011;47431;51.640;5.554;2023-03-01T16:20:07;10.38;;;7.72;;
59790;SDS011;47431;51.640;5.554;2023-03-01T16:22:33;12.52;;;8.95;;
59790;SDS011;47431;51.640;5.554;2023-03-01T16:24:58;9.95;;;7.65;;
59790;SDS011;47431;51.640;5.554;2023-03-01T16:27:23;13.82;;;8.40;;
59790;SDS011;47431;51.640;5.554;2023-03-01T16:29:48;11.73;;;8.02;;
59790;SDS011;47431;51.640;5.554;2023-03-01T16:32:14;12.32;;;7.78;;
59790;SDS011;47431;51.640;5.554;2023-03-01T16:34:39;16.33;;;8.32;;
59790;SDS011;47431;51.640;5.554;2023-03-01T16:37:04;14.25;;;8.95;;
59790;SDS011;47431;51.640;5.554;2023-03-01T16:39:29;11.18;;;8.20;;
59790;SDS011;47431;51.640;5.554;2023-03-01T16:41:54;13.00;;;8.68;;
59790;SDS011;47431;51.640;5.554;2023-03-01T16:44:20;16.60;;;7.90;;
59790;SDS011;47431;51.640;5.554;2023-03-01T16:46:45;14.98;;;10.30;;